Accueil
METAR-TAF:

METAR-TAF

Aéroports :

Portorož, Slovénie

latitude: 45-31N, longitude: 013-34E, altitude: 95 m

Observation

Le bulletin a été fait il y a 22 minutes, à 10:30 UTC
Vent 7 kt de ouest/nord-ouest
Température 25°C
Humidité 57%
Pression 1018 hPa
Visibilité 10 km ou plus
pas de nuages en-dessous de 1500 mètres et pas de cumulonimbus.

METAR: LJPZ 121030Z 30007KT CAVOK 25/16 Q1018

Heure: 12:52 (10:52 UTC)

Prévision

Le bulletin a été fait il y a 2 heures et 52 minutes, à 08:00 UTC
Prévision valable du 12 à 09 UTC au 12 à 18 UTC
Vent 2 kt de direction variable
Visibilité 10 km ou plus
pas de nuages en-dessous de 1500 mètres et pas de cumulonimbus.
Evoluant progressivement
du 12 à 10 UTC au 12 à 12 UTC
Vent 10 kt de ouest/nord-ouest

TAF: LJPZ 120800Z 1209/1218 VRB02KT CAVOK BECMG 1210/1212 30010KT

Observations et prévisions météorologiques de plus de 4000 aéroports (messages METAR et TAF).

Les stations disponibles sont représentées par des disques jaunes et rouges sur la carte.

Passer la souris dessus pour voir le nom de la station.

Cliquer dessus pour voir les observations et prévisions météorologiques.

Pour changer de carte: cliquez sur les boutons verts avec une croix noire pour zoomer, sur le bouton vert avec un tiret pour effectuer un zoom arrière, ou sur les flèches vertes pour les cartes adjacentes.


METAR-TAF: